createdAt,value
2022-12-24T00:01:04.307Z,17.10
2022-12-24T00:03:31.390Z,24.65
2022-12-24T00:05:58.593Z,20.70
2022-12-24T00:08:25.686Z,23.63
2022-12-24T00:10:54.120Z,25.67
2022-12-24T00:13:21.380Z,23.38
2022-12-24T00:15:49.088Z,22.55
2022-12-24T00:18:16.120Z,26.98
2022-12-24T00:20:48.898Z,24.95
2022-12-24T00:23:16.448Z,18.77
2022-12-24T00:25:43.900Z,21.85
2022-12-24T00:28:11.418Z,26.10
2022-12-24T00:30:39.951Z,27.45
2022-12-24T00:33:06.987Z,20.98
2022-12-24T00:35:35.362Z,28.55
2022-12-24T00:38:03.927Z,18.88
2022-12-24T00:40:31.785Z,24.08
2022-12-24T00:42:58.780Z,22.50
2022-12-24T00:45:27.930Z,27.52
2022-12-24T00:47:54.919Z,20.90
2022-12-24T00:50:21.816Z,22.23
2022-12-24T00:52:48.721Z,26.65
2022-12-24T00:55:15.794Z,25.52
2022-12-24T00:57:42.759Z,18.35
2022-12-24T01:00:10.095Z,28.92
2022-12-24T01:02:37.269Z,21.85
2022-12-24T01:05:10.485Z,29.00
2022-12-24T01:10:05.753Z,22.63
2022-12-24T01:12:32.907Z,25.58
2022-12-24T01:14:59.722Z,18.05
2022-12-24T01:17:26.595Z,30.50
2022-12-24T01:19:53.436Z,22.60
2022-12-24T01:22:20.391Z,20.17
2022-12-24T01:24:47.258Z,24.05
2022-12-24T01:27:14.072Z,24.83
2022-12-24T01:29:41.072Z,18.45
2022-12-24T01:32:07.848Z,29.92
2022-12-24T01:34:34.775Z,25.55
2022-12-24T01:37:01.714Z,23.65
2022-12-24T01:39:28.518Z,21.27
2022-12-24T01:42:14.191Z,22.58
2022-12-24T01:44:43.570Z,24.13
2022-12-24T01:47:22.298Z,28.00
2022-12-24T01:49:54.305Z,23.88
2022-12-24T01:52:34.828Z,25.20
2022-12-24T01:55:12.715Z,25.67
2022-12-24T01:57:46.700Z,21.88
2022-12-24T02:00:15.801Z,14.13
2022-12-24T02:02:46.375Z,20.55
2022-12-24T02:05:43.493Z,22.38
2022-12-24T02:08:11.237Z,20.70
2022-12-24T02:10:38.069Z,23.08
2022-12-24T02:13:06.263Z,17.35
2022-12-24T02:16:04.996Z,22.00
2022-12-24T02:18:38.650Z,21.60
2022-12-24T02:21:14.469Z,17.88
2022-12-24T02:24:16.370Z,23.38
2022-12-24T02:27:04.188Z,25.98
2022-12-24T02:29:52.514Z,24.15
2022-12-24T02:32:32.802Z,22.90
2022-12-24T02:35:38.618Z,21.02
2022-12-24T02:38:17.526Z,20.55
2022-12-24T02:40:56.778Z,19.38
2022-12-24T02:43:27.431Z,26.92
2022-12-24T02:46:01.152Z,15.73
2022-12-24T02:48:30.554Z,17.63
2022-12-24T02:51:03.375Z,20.63
2022-12-24T02:53:31.407Z,19.20
2022-12-24T02:56:17.758Z,26.10
2022-12-24T02:59:12.093Z,17.85
2022-12-24T03:01:56.930Z,18.15
2022-12-24T03:04:41.265Z,18.70
2022-12-24T03:07:26.330Z,21.40
2022-12-24T03:10:06.732Z,15.00
2022-12-24T03:12:46.280Z,17.25
2022-12-24T03:15:17.395Z,15.52
2022-12-24T03:17:47.830Z,10.75
2022-12-24T03:20:21.096Z,27.63
2022-12-24T03:22:48.325Z,20.17
2022-12-24T03:25:15.408Z,13.10
2022-12-24T03:27:42.650Z,20.67
2022-12-24T03:30:13.902Z,16.45
2022-12-24T03:32:40.979Z,15.25
2022-12-24T03:35:09.150Z,20.92
2022-12-24T03:37:36.082Z,17.17
2022-12-24T03:40:03.672Z,16.73
2022-12-24T03:42:30.471Z,15.45
2022-12-24T03:44:57.341Z,19.52
2022-12-24T03:47:24.195Z,21.80
2022-12-24T03:49:50.999Z,15.70
2022-12-24T03:52:17.812Z,18.58
2022-12-24T03:54:44.800Z,22.38
2022-12-24T03:57:11.580Z,21.67
2022-12-24T03:59:38.390Z,18.75
2022-12-24T04:02:05.607Z,19.70
2022-12-24T04:04:33.523Z,20.58
2022-12-24T04:07:00.344Z,20.42
2022-12-24T04:09:27.210Z,18.08
2022-12-24T04:11:54.029Z,27.75
2022-12-24T04:14:20.978Z,26.77
2022-12-24T04:16:47.939Z,20.10
2022-12-24T04:19:14.812Z,26.98
2022-12-24T04:21:41.645Z,20.50
2022-12-24T04:24:08.714Z,20.35
2022-12-24T04:26:35.698Z,27.50
2022-12-24T04:29:02.472Z,7.65
2022-12-24T04:31:29.350Z,7.88
2022-12-24T04:33:56.400Z,14.82
2022-12-24T04:36:23.357Z,8.35
2022-12-24T04:38:50.326Z,9.27
2022-12-24T04:41:23.861Z,9.48
2022-12-24T04:43:53.336Z,13.05
2022-12-24T04:46:23.243Z,7.13
2022-12-24T04:48:51.762Z,14.27
2022-12-24T04:51:19.477Z,10.45
2022-12-24T04:53:47.820Z,10.55
2022-12-24T04:56:16.729Z,9.23
2022-12-24T04:58:43.995Z,13.32
2022-12-24T05:01:25.443Z,6.97
2022-12-24T05:03:53.516Z,7.18
2022-12-24T05:06:26.965Z,4.78
2022-12-24T05:08:55.705Z,6.35
2022-12-24T05:11:22.957Z,11.45
2022-12-24T05:13:49.968Z,12.07
2022-12-24T05:16:19.124Z,7.38
2022-12-24T05:18:45.944Z,12.52
2022-12-24T05:21:22.213Z,7.63
2022-12-24T05:24:08.331Z,12.93
2022-12-24T05:26:41.549Z,8.52
2022-12-24T05:29:09.943Z,20.75
2022-12-24T05:31:36.992Z,18.48
2022-12-24T05:34:04.046Z,10.55
2022-12-24T05:36:31.197Z,21.08
2022-12-24T05:38:58.439Z,15.80
2022-12-24T05:41:25.939Z,17.88
2022-12-24T05:43:52.772Z,12.35
2022-12-24T05:46:22.154Z,15.27
2022-12-24T05:48:50.190Z,10.05
2022-12-24T05:51:19.671Z,10.57
2022-12-24T05:53:47.838Z,14.82
2022-12-24T05:56:21.488Z,12.63
2022-12-24T05:58:49.014Z,12.48
2022-12-24T06:01:16.206Z,10.95
2022-12-24T06:03:43.219Z,6.35
2022-12-24T06:06:13.786Z,11.82
2022-12-24T06:08:41.835Z,12.05
2022-12-24T06:11:12.054Z,9.02
2022-12-24T06:13:40.758Z,10.05
2022-12-24T06:16:10.703Z,9.90
2022-12-24T06:18:37.865Z,8.27
2022-12-24T06:21:05.610Z,9.70
2022-12-24T06:23:35.185Z,6.10
2022-12-24T06:26:03.630Z,6.35
2022-12-24T06:28:32.085Z,5.30
2022-12-24T06:31:02.997Z,10.80
2022-12-24T06:33:31.108Z,8.63
2022-12-24T06:35:58.012Z,8.23
2022-12-24T06:38:24.931Z,6.32
2022-12-24T06:40:52.334Z,6.45
2022-12-24T06:43:19.149Z,7.72
2022-12-24T06:45:47.620Z,8.52
2022-12-24T06:48:15.593Z,12.13
2022-12-24T06:50:43.102Z,8.98
2022-12-24T06:53:10.065Z,10.95
2022-12-24T06:55:37.491Z,9.15
2022-12-24T06:58:05.905Z,13.30
2022-12-24T07:00:32.852Z,19.00
2022-12-24T07:02:59.917Z,17.33
2022-12-24T07:05:28.289Z,15.82
2022-12-24T07:07:55.191Z,13.80
2022-12-24T07:10:22.190Z,20.27
2022-12-24T07:12:49.458Z,18.08
2022-12-24T07:15:16.858Z,20.98
2022-12-24T07:17:44.424Z,18.55
2022-12-24T07:20:14.931Z,29.60
2022-12-24T07:22:43.044Z,20.67
2022-12-24T07:25:11.207Z,17.83
2022-12-24T07:27:39.266Z,28.10
2022-12-24T07:30:06.896Z,22.80
2022-12-24T07:32:34.094Z,24.75
2022-12-24T07:35:01.196Z,19.80
2022-12-24T07:37:28.085Z,23.40
2022-12-24T07:39:54.889Z,29.92
2022-12-24T07:42:22.104Z,25.88
2022-12-24T07:44:48.932Z,26.58
2022-12-24T07:47:15.752Z,26.23
2022-12-24T07:49:42.634Z,25.85
2022-12-24T07:52:09.429Z,22.98
2022-12-24T07:54:36.185Z,22.23
2022-12-24T07:57:03.122Z,27.60
2022-12-24T07:59:29.908Z,23.35
2022-12-24T08:01:57.030Z,32.85
2022-12-24T08:04:24.058Z,26.90
2022-12-24T08:06:50.822Z,30.52
2022-12-24T08:09:17.678Z,28.58
2022-12-24T08:11:49.877Z,29.45
2022-12-24T08:14:19.601Z,33.53
2022-12-24T08:16:46.689Z,30.40
2022-12-24T08:19:13.624Z,20.88
2022-12-24T08:21:40.647Z,29.98
2022-12-24T08:24:07.551Z,30.38
2022-12-24T08:26:34.451Z,33.92
2022-12-24T08:29:02.052Z,28.38
2022-12-24T08:31:28.926Z,25.83
2022-12-24T08:33:55.947Z,19.85
2022-12-24T08:36:22.753Z,26.83
2022-12-24T08:38:49.514Z,23.92
2022-12-24T08:41:16.412Z,34.28
2022-12-24T08:43:43.258Z,25.42
2022-12-24T08:46:10.509Z,30.88
2022-12-24T08:48:37.632Z,23.45
2022-12-24T08:51:12.157Z,25.00
2022-12-24T08:53:39.834Z,26.52
2022-12-24T08:56:08.862Z,22.88
2022-12-24T08:58:37.122Z,29.65
2022-12-24T09:01:11.981Z,23.42
2022-12-24T09:03:39.044Z,25.88
2022-12-24T09:06:06.956Z,26.30
2022-12-24T09:08:34.663Z,28.60
2022-12-24T09:11:11.112Z,31.48
2022-12-24T09:13:38.540Z,23.17
2022-12-24T09:16:05.886Z,24.50
2022-12-24T09:18:33.217Z,21.80
2022-12-24T09:21:01.577Z,20.42
2022-12-24T09:23:29.398Z,20.38
2022-12-24T09:25:56.357Z,25.02
2022-12-24T09:28:23.388Z,23.05
2022-12-24T09:31:01.143Z,30.60
2022-12-24T09:33:29.671Z,20.67
2022-12-24T09:35:56.728Z,28.08
2022-12-24T09:38:23.829Z,21.85
2022-12-24T09:40:52.189Z,26.48
2022-12-24T09:43:24.601Z,26.95
2022-12-24T09:45:57.313Z,28.58
2022-12-24T09:48:30.073Z,24.45
2022-12-24T09:51:08.690Z,21.92
2022-12-24T09:54:10.941Z,24.77
2022-12-24T09:56:44.510Z,26.50
2022-12-24T09:59:22.724Z,24.92
2022-12-24T10:01:52.576Z,30.55
2022-12-24T10:04:22.859Z,26.38
2022-12-24T10:07:07.882Z,30.42
2022-12-24T10:10:00.679Z,28.33
2022-12-24T10:12:49.882Z,31.98
2022-12-24T10:15:55.386Z,24.30
2022-12-24T10:18:36.587Z,25.98
2022-12-24T10:21:34.935Z,30.15
2022-12-24T10:24:18.013Z,21.83
2022-12-24T10:27:05.220Z,26.23
2022-12-24T10:29:39.174Z,23.92
2022-12-24T10:32:09.092Z,23.77
2022-12-24T10:34:41.779Z,29.30
2022-12-24T10:37:16.401Z,26.45
2022-12-24T10:39:43.961Z,25.42
2022-12-24T10:42:13.473Z,27.52
2022-12-24T10:44:40.640Z,23.00
2022-12-24T10:47:09.580Z,23.77
2022-12-24T10:50:17.173Z,30.52
2022-12-24T10:52:46.005Z,23.20
2022-12-24T10:55:18.812Z,27.83
2022-12-24T10:57:47.075Z,29.23
2022-12-24T11:00:30.099Z,19.45
2022-12-24T11:03:33.720Z,26.13
2022-12-24T11:06:09.587Z,18.88
2022-12-24T11:08:39.581Z,21.23
2022-12-24T11:11:28.580Z,23.90
2022-12-24T11:13:58.882Z,29.63
2022-12-24T11:16:29.949Z,29.27
2022-12-24T11:19:01.253Z,22.73
2022-12-24T11:21:33.944Z,30.73
2022-12-24T11:24:28.634Z,26.35
2022-12-24T11:27:16.057Z,26.73
2022-12-24T11:29:42.791Z,27.83
2022-12-24T11:32:20.369Z,27.65
2022-12-24T11:34:47.815Z,30.65
2022-12-24T11:37:22.416Z,30.25
2022-12-24T11:39:55.428Z,24.40
2022-12-24T11:44:56.541Z,30.00
2022-12-24T11:47:34.411Z,25.60
2022-12-24T11:50:21.359Z,29.50
2022-12-24T11:52:59.498Z,38.03
2022-12-24T11:55:46.596Z,33.70
2022-12-24T11:58:39.510Z,24.10
2022-12-24T12:01:43.317Z,23.67
2022-12-24T12:04:18.784Z,30.58
2022-12-24T12:06:55.513Z,31.02
2022-12-24T12:09:31.472Z,26.25
2022-12-24T12:12:13.429Z,29.85
2022-12-24T12:14:48.161Z,27.42
2022-12-24T12:17:30.535Z,35.13
2022-12-24T12:20:19.045Z,32.30
2022-12-24T12:22:51.884Z,26.85
2022-12-24T12:25:26.453Z,33.83
2022-12-24T12:27:56.823Z,29.42
2022-12-24T12:30:25.263Z,28.77
2022-12-24T12:33:02.011Z,23.27
2022-12-24T12:35:36.747Z,28.75
2022-12-24T12:38:11.204Z,27.35
2022-12-24T12:40:50.472Z,21.13
2022-12-24T12:43:51.405Z,24.23
2022-12-24T12:46:56.419Z,25.48
2022-12-24T12:49:57.021Z,21.50
2022-12-24T12:52:48.208Z,30.67
2022-12-24T12:55:46.757Z,23.52
2022-12-24T12:58:25.680Z,28.85
2022-12-24T13:01:15.616Z,29.27
2022-12-24T13:03:55.074Z,33.15
2022-12-24T13:06:34.066Z,23.90
2022-12-24T13:09:25.179Z,24.60
2022-12-24T13:11:58.003Z,25.80
2022-12-24T13:14:57.460Z,22.45
2022-12-24T13:17:37.385Z,27.48
2022-12-24T13:20:14.939Z,21.25
2022-12-24T13:22:54.293Z,26.88
2022-12-24T13:25:49.697Z,21.75
2022-12-24T13:28:22.572Z,24.33
2022-12-24T13:30:51.809Z,30.08
2022-12-24T13:33:37.317Z,26.65
2022-12-24T13:36:09.541Z,26.42
2022-12-24T13:38:42.725Z,25.98
2022-12-24T13:41:40.985Z,26.35
2022-12-24T13:44:14.100Z,36.70
2022-12-24T13:46:56.963Z,25.27
2022-12-24T13:49:36.305Z,24.75
2022-12-24T13:52:09.330Z,25.67
2022-12-24T13:57:24.017Z,32.10
2022-12-24T13:59:59.685Z,27.70
2022-12-24T14:02:32.550Z,20.40
2022-12-24T14:05:03.810Z,28.73
2022-12-24T14:07:31.369Z,32.63
2022-12-24T14:09:59.739Z,29.63
2022-12-24T14:12:53.482Z,27.90
2022-12-24T14:15:45.205Z,24.35
2022-12-24T14:18:18.981Z,24.65
2022-12-24T14:20:53.068Z,19.27
2022-12-24T14:23:42.587Z,41.03
2022-12-24T14:26:15.610Z,28.60
2022-12-24T14:31:18.954Z,28.73
2022-12-24T14:33:46.215Z,36.63
2022-12-24T14:36:18.726Z,21.73
2022-12-24T14:38:46.058Z,31.02
2022-12-24T14:41:31.766Z,20.65
2022-12-24T14:44:33.945Z,19.98
2022-12-24T14:47:17.500Z,23.73
2022-12-24T14:50:08.442Z,27.30
2022-12-24T14:53:08.269Z,30.65
2022-12-24T14:55:42.913Z,22.27
2022-12-24T14:58:32.278Z,32.30
2022-12-24T15:01:01.989Z,19.02
2022-12-24T15:03:32.049Z,24.92
2022-12-24T15:06:03.270Z,23.20
2022-12-24T15:08:38.843Z,29.42
2022-12-24T15:11:08.544Z,32.17
2022-12-24T15:13:41.749Z,19.08
2022-12-24T15:16:12.232Z,29.75
2022-12-24T15:18:52.864Z,22.90
2022-12-24T15:21:44.081Z,24.65
2022-12-24T15:24:27.716Z,23.35
2022-12-24T15:26:55.854Z,20.35
2022-12-24T15:29:28.559Z,20.17
2022-12-24T15:32:05.675Z,31.17
2022-12-24T15:34:38.331Z,22.58
2022-12-24T15:37:14.855Z,25.98
2022-12-24T15:39:41.997Z,31.27
2022-12-24T15:42:16.083Z,39.15
2022-12-24T15:45:02.276Z,32.58
2022-12-24T15:47:39.368Z,31.27
2022-12-24T15:50:16.166Z,30.80
2022-12-24T15:52:44.087Z,28.17
2022-12-24T15:55:33.440Z,23.42
2022-12-24T15:58:02.391Z,29.13
2022-12-24T16:00:32.232Z,23.63
2022-12-24T16:03:31.961Z,30.50
2022-12-24T16:06:09.610Z,36.78
2022-12-24T16:08:40.205Z,23.02
2022-12-24T16:11:23.651Z,29.38
2022-12-24T16:14:02.612Z,31.80
2022-12-24T16:16:58.506Z,38.88
2022-12-24T16:19:39.454Z,27.20
2022-12-24T16:22:26.082Z,35.08
2022-12-24T16:24:55.626Z,28.90
2022-12-24T16:27:22.556Z,27.27
2022-12-24T16:29:50.363Z,26.63
2022-12-24T16:32:34.481Z,26.60
2022-12-24T16:35:03.337Z,35.47
2022-12-24T16:37:30.409Z,28.27
2022-12-24T16:39:57.838Z,30.95
2022-12-24T16:42:43.469Z,25.42
2022-12-24T16:45:10.793Z,31.73
2022-12-24T16:47:42.869Z,32.20
2022-12-24T16:50:16.256Z,29.42
2022-12-24T16:52:43.550Z,30.98
2022-12-24T16:55:14.807Z,35.00
2022-12-24T16:57:42.535Z,24.40
2022-12-24T17:00:15.796Z,28.33
2022-12-24T17:02:42.952Z,22.08
2022-12-24T17:05:10.246Z,37.90
2022-12-24T17:07:41.353Z,23.67
2022-12-24T17:10:12.555Z,25.50
2022-12-24T17:12:39.502Z,33.38
2022-12-24T17:15:06.949Z,36.78
2022-12-24T17:17:34.027Z,36.42
2022-12-24T17:20:01.102Z,32.25
2022-12-24T17:22:28.158Z,34.38
2022-12-24T17:24:55.487Z,27.23
2022-12-24T17:27:23.033Z,31.27
2022-12-24T17:29:50.195Z,27.45
2022-12-24T17:32:17.374Z,39.95
2022-12-24T17:34:44.220Z,35.15
2022-12-24T17:37:11.083Z,36.83
2022-12-24T17:39:37.993Z,35.78
2022-12-24T17:42:05.072Z,34.05
2022-12-24T17:44:32.058Z,33.10
2022-12-24T17:46:59.027Z,32.97
2022-12-24T17:49:25.983Z,32.72
2022-12-24T17:51:53.286Z,39.63
2022-12-24T17:54:20.069Z,28.33
2022-12-24T17:56:47.515Z,33.17
2022-12-24T17:59:14.520Z,35.38
2022-12-24T18:01:41.558Z,30.67
2022-12-24T18:04:08.695Z,37.53
2022-12-24T18:06:35.556Z,31.10
2022-12-24T18:09:03.158Z,30.08
2022-12-24T18:11:34.445Z,32.85
2022-12-24T18:14:03.383Z,33.70
2022-12-24T18:16:35.512Z,34.72
2022-12-24T18:19:04.325Z,37.45
2022-12-24T18:21:32.511Z,31.20
2022-12-24T18:24:00.041Z,28.52
2022-12-24T18:26:30.670Z,27.60
2022-12-24T18:28:58.896Z,32.25
2022-12-24T18:31:26.916Z,36.53
2022-12-24T18:33:54.865Z,27.35
2022-12-24T18:36:21.844Z,27.55
2022-12-24T18:38:49.059Z,28.10
2022-12-24T18:41:19.277Z,29.85
2022-12-24T18:43:46.289Z,32.65
2022-12-24T18:46:19.027Z,28.10
2022-12-24T18:48:46.956Z,33.15
2022-12-24T18:51:14.275Z,33.67
2022-12-24T18:53:41.105Z,29.98
2022-12-24T18:56:13.635Z,33.25
2022-12-24T18:58:42.596Z,35.53
2022-12-24T19:01:31.501Z,25.48
2022-12-24T19:03:58.601Z,30.23
2022-12-24T19:06:25.691Z,27.85
2022-12-24T19:08:59.224Z,27.70
2022-12-24T19:11:28.976Z,26.17
2022-12-24T19:13:57.929Z,27.63
2022-12-24T19:16:25.203Z,31.90
2022-12-24T19:18:52.087Z,34.15
2022-12-24T19:21:19.024Z,34.03
2022-12-24T19:23:46.464Z,36.35
2022-12-24T19:26:15.335Z,30.25
2022-12-24T19:28:42.769Z,34.17
2022-12-24T19:31:15.202Z,42.92
2022-12-24T19:33:44.562Z,44.40
2022-12-24T19:36:17.340Z,26.70
2022-12-24T19:38:44.362Z,31.40
2022-12-24T19:41:14.178Z,33.47
2022-12-24T19:43:43.992Z,35.83
2022-12-24T19:46:12.895Z,25.70
2022-12-24T19:48:40.618Z,28.02
2022-12-24T19:51:11.245Z,26.30
2022-12-24T19:53:39.889Z,37.28
2022-12-24T19:56:08.722Z,23.17
2022-12-24T19:58:36.183Z,23.35
2022-12-24T20:01:20.765Z,30.45
2022-12-24T20:03:48.866Z,23.20
2022-12-24T20:06:17.338Z,22.40
2022-12-24T20:08:44.404Z,29.23
2022-12-24T20:11:13.546Z,27.70
2022-12-24T20:13:41.222Z,33.38
2022-12-24T20:16:14.363Z,24.73
2022-12-24T20:18:41.442Z,19.77
2022-12-24T20:21:11.313Z,31.67
2022-12-24T20:23:39.838Z,25.05
2022-12-24T20:26:09.130Z,27.73
2022-12-24T20:28:36.864Z,23.65
2022-12-24T20:31:21.683Z,33.10
2022-12-24T20:33:48.587Z,22.27
2022-12-24T20:36:18.317Z,28.17
2022-12-24T20:38:45.863Z,25.92
2022-12-24T20:41:14.405Z,27.52
2022-12-24T20:43:47.951Z,32.55
2022-12-24T20:46:18.400Z,22.05
2022-12-24T20:48:45.780Z,37.10
2022-12-24T20:51:23.844Z,31.23
2022-12-24T20:53:53.615Z,31.83
2022-12-24T20:56:20.771Z,34.75
2022-12-24T20:58:49.046Z,34.88
2022-12-24T21:01:19.059Z,38.13
2022-12-24T21:03:46.115Z,30.52
2022-12-24T21:06:13.926Z,34.63
2022-12-24T21:08:40.807Z,30.92
2022-12-24T21:11:26.587Z,31.10
2022-12-24T21:13:53.383Z,33.63
2022-12-24T21:16:20.251Z,30.63
2022-12-24T21:18:47.146Z,30.60
2022-12-24T21:21:14.208Z,30.92
2022-12-24T21:23:40.991Z,30.90
2022-12-24T21:26:07.851Z,29.95
2022-12-24T21:28:34.677Z,26.95
2022-12-24T21:31:01.875Z,39.45
2022-12-24T21:33:36.240Z,32.72
2022-12-24T21:36:05.099Z,31.42
2022-12-24T21:38:32.435Z,35.10
2022-12-24T21:41:01.316Z,32.38
2022-12-24T21:43:31.972Z,35.47
2022-12-24T21:45:58.908Z,35.35
2022-12-24T21:48:45.141Z,42.38
2022-12-24T21:51:11.957Z,31.45
2022-12-24T21:53:57.548Z,29.38
2022-12-24T21:56:24.586Z,34.47
2022-12-24T21:58:51.944Z,35.28
2022-12-24T22:01:19.763Z,42.55
2022-12-24T22:03:49.932Z,31.30
2022-12-24T22:06:36.011Z,34.10
2022-12-24T22:09:21.372Z,23.55
2022-12-24T22:11:53.830Z,37.20
2022-12-24T22:14:21.846Z,24.85
2022-12-24T22:16:48.944Z,28.73
2022-12-24T22:19:15.776Z,29.45
2022-12-24T22:21:42.714Z,32.90
2022-12-24T22:24:09.586Z,38.42
2022-12-24T22:26:36.349Z,31.48
2022-12-24T22:29:06.609Z,31.38
2022-12-24T22:31:33.722Z,24.95
2022-12-24T22:34:00.872Z,24.25
2022-12-24T22:36:27.680Z,30.30
2022-12-24T22:38:54.452Z,25.67
2022-12-24T22:41:21.269Z,28.05
2022-12-24T22:43:49.801Z,27.45
2022-12-24T22:46:17.852Z,28.05
2022-12-24T22:48:45.897Z,27.50
2022-12-24T22:51:18.126Z,41.38
2022-12-24T22:53:45.661Z,25.38
2022-12-24T22:56:17.283Z,29.30
2022-12-24T22:58:44.507Z,23.52
2022-12-24T23:01:11.438Z,24.10
2022-12-24T23:03:38.388Z,29.40
2022-12-24T23:06:07.302Z,25.75
2022-12-24T23:08:35.922Z,26.73
2022-12-24T23:11:08.178Z,25.63
2022-12-24T23:13:56.332Z,20.10
2022-12-24T23:16:23.818Z,23.80
2022-12-24T23:18:50.844Z,22.92
2022-12-24T23:21:17.864Z,25.10
2022-12-24T23:23:44.632Z,15.73
2022-12-24T23:26:14.865Z,26.98
2022-12-24T23:28:41.766Z,21.27
2022-12-24T23:31:09.031Z,27.42
2022-12-24T23:33:36.369Z,24.30
2022-12-24T23:36:04.035Z,22.10
2022-12-24T23:38:31.040Z,18.27
2022-12-24T23:41:00.049Z,26.08
2022-12-24T23:43:27.287Z,23.25
2022-12-24T23:45:54.805Z,17.23
2022-12-24T23:48:23.451Z,22.23
2022-12-24T23:50:50.416Z,19.17
2022-12-24T23:53:18.342Z,16.15
2022-12-24T23:55:45.841Z,35.63
2022-12-24T23:58:16.625Z,22.02
